sensor_id;sensor_type;location;lat;lon;timestamp;pressure;altitude;pressure_sealevel;temperature;humidity
9249;BME280;4660;41.768;26.198;2023-05-12T00:02:18;101305.72;;;9.32;100.00
9249;BME280;4660;41.768;26.198;2023-05-12T00:04:43;101296.56;;;9.24;100.00
9249;BME280;4660;41.768;26.198;2023-05-12T00:07:09;101309.38;;;9.31;100.00
9249;BME280;4660;41.768;26.198;2023-05-12T00:09:34;101316.59;;;9.42;100.00
9249;BME280;4660;41.768;26.198;2023-05-12T00:12:01;101310.78;;;9.59;100.00
9249;BME280;4660;41.768;26.198;2023-05-12T00:14:26;101297.78;;;9.31;100.00
9249;BME280;4660;41.768;26.198;2023-05-12T00:16:52;101309.78;;;9.38;100.00
9249;BME280;4660;41.768;26.198;2023-05-12T00:19:18;101311.81;;;9.34;100.00
9249;BME280;4660;41.768;26.198;2023-05-12T00:21:44;101303.66;;;9.36;100.00
9249;BME280;4660;41.768;26.198;2023-05-12T00:24:10;101305.34;;;9.26;100.00
9249;BME280;4660;41.768;26.198;2023-05-12T00:26:35;101298.25;;;9.25;100.00
9249;BME280;4660;41.768;26.198;2023-05-12T00:29:01;101300.91;;;9.14;100.00
9249;BME280;4660;41.768;26.198;2023-05-12T00:31:28;101306.06;;;9.17;100.00
9249;BME280;4660;41.768;26.198;2023-05-12T00:33:53;101294.78;;;9.00;100.00
9249;BME280;4660;41.768;26.198;2023-05-12T00:36:19;101307.44;;;8.98;100.00
9249;BME280;4660;41.768;26.198;2023-05-12T00:38:44;101312.28;;;8.82;100.00
9249;BME280;4660;41.768;26.198;2023-05-12T00:41:09;101311.63;;;8.78;100.00
9249;BME280;4660;41.768;26.198;2023-05-12T00:43:35;101295.34;;;8.58;100.00
9249;BME280;4660;41.768;26.198;2023-05-12T00:46:03;101303.19;;;8.48;100.00
9249;BME280;4660;41.768;26.198;2023-05-12T00:48:30;101303.66;;;8.42;100.00
9249;BME280;4660;41.768;26.198;2023-05-12T00:50:56;101303.38;;;8.58;100.00
9249;BME280;4660;41.768;26.198;2023-05-12T00:53:23;101292.03;;;8.54;100.00
9249;BME280;4660;41.768;26.198;2023-05-12T00:55:48;101288.31;;;8.68;100.00
9249;BME280;4660;41.768;26.198;2023-05-12T00:58:14;101294.22;;;8.84;100.00
9249;BME280;4660;41.768;26.198;2023-05-12T01:00:39;101293.22;;;8.74;100.00
9249;BME280;4660;41.768;26.198;2023-05-12T01:03:05;101308.63;;;8.59;100.00
9249;BME280;4660;41.768;26.198;2023-05-12T01:05:35;101307.19;;;8.42;100.00
9249;BME280;4660;41.768;26.198;2023-05-12T01:08:03;101300.19;;;8.52;100.00
9249;BME280;4660;41.768;26.198;2023-05-12T01:10:30;101302.78;;;8.41;100.00
9249;BME280;4660;41.768;26.198;2023-05-12T01:12:56;101301.09;;;8.40;100.00
9249;BME280;4660;41.768;26.198;2023-05-12T01:15:21;101297.38;;;8.54;100.00
9249;BME280;4660;41.768;26.198;2023-05-12T01:17:52;101303.66;;;8.42;100.00
9249;BME280;4660;41.768;26.198;2023-05-12T01:20:21;101309.19;;;8.51;100.00
9249;BME280;4660;41.768;26.198;2023-05-12T01:22:50;101309.25;;;8.39;100.00
9249;BME280;4660;41.768;26.198;2023-05-12T01:25:18;101299.81;;;8.20;100.00
9249;BME280;4660;41.768;26.198;2023-05-12T01:27:47;101315.91;;;8.20;100.00
9249;BME280;4660;41.768;26.198;2023-05-12T01:30:18;101301.66;;;8.07;100.00
9249;BME280;4660;41.768;26.198;2023-05-12T01:32:45;101304.28;;;8.09;100.00
9249;BME280;4660;41.768;26.198;2023-05-12T01:35:11;101307.56;;;8.12;100.00
9249;BME280;4660;41.768;26.198;2023-05-12T01:37:36;101301.00;;;8.29;100.00
9249;BME280;4660;41.768;26.198;2023-05-12T01:40:02;101271.81;;;8.37;100.00
9249;BME280;4660;41.768;26.198;2023-05-12T01:42:28;101267.75;;;8.55;100.00
9249;BME280;4660;41.768;26.198;2023-05-12T01:44:53;101287.34;;;8.69;100.00
9249;BME280;4660;41.768;26.198;2023-05-12T01:47:19;101299.09;;;8.55;100.00
9249;BME280;4660;41.768;26.198;2023-05-12T01:49:45;101308.28;;;8.40;100.00
9249;BME280;4660;41.768;26.198;2023-05-12T01:52:11;101307.53;;;8.25;100.00
9249;BME280;4660;41.768;26.198;2023-05-12T01:54:37;101304.44;;;8.18;100.00
9249;BME280;4660;41.768;26.198;2023-05-12T01:57:03;101303.28;;;8.10;100.00
9249;BME280;4660;41.768;26.198;2023-05-12T01:59:28;101290.81;;;8.21;100.00
9249;BME280;4660;41.768;26.198;2023-05-12T02:01:54;101291.69;;;8.22;100.00
9249;BME280;4660;41.768;26.198;2023-05-12T02:04:19;101304.63;;;8.41;100.00
9249;BME280;4660;41.768;26.198;2023-05-12T02:06:45;101300.09;;;8.41;100.00
9249;BME280;4660;41.768;26.198;2023-05-12T02:09:10;101296.13;;;8.34;100.00
9249;BME280;4660;41.768;26.198;2023-05-12T02:11:36;101286.41;;;8.20;100.00
9249;BME280;4660;41.768;26.198;2023-05-12T02:14:01;101297.44;;;8.28;100.00
9249;BME280;4660;41.768;26.198;2023-05-12T02:16:27;101296.38;;;8.31;100.00
9249;BME280;4660;41.768;26.198;2023-05-12T02:18:53;101273.94;;;8.08;100.00
9249;BME280;4660;41.768;26.198;2023-05-12T02:21:18;101295.31;;;8.21;100.00
9249;BME280;4660;41.768;26.198;2023-05-12T02:23:43;101307.78;;;8.22;100.00
9249;BME280;4660;41.768;26.198;2023-05-12T02:26:09;101311.06;;;8.38;100.00
9249;BME280;4660;41.768;26.198;2023-05-12T02:28:35;101309.97;;;8.41;100.00
9249;BME280;4660;41.768;26.198;2023-05-12T02:31:00;101305.16;;;8.33;100.00
9249;BME280;4660;41.768;26.198;2023-05-12T02:33:26;101307.31;;;8.28;100.00
9249;BME280;4660;41.768;26.198;2023-05-12T02:35:51;101292.22;;;8.14;100.00
9249;BME280;4660;41.768;26.198;2023-05-12T02:38:17;101302.63;;;8.19;100.00
9249;BME280;4660;41.768;26.198;2023-05-12T02:40:42;101311.41;;;8.21;100.00
9249;BME280;4660;41.768;26.198;2023-05-12T02:43:08;101305.31;;;8.19;100.00
9249;BME280;4660;41.768;26.198;2023-05-12T02:45:34;101296.63;;;8.15;100.00
9249;BME280;4660;41.768;26.198;2023-05-12T02:48:00;101294.41;;;8.46;100.00
9249;BME280;4660;41.768;26.198;2023-05-12T02:50:25;101302.06;;;8.63;100.00
9249;BME280;4660;41.768;26.198;2023-05-12T02:52:51;101304.72;;;8.63;100.00
9249;BME280;4660;41.768;26.198;2023-05-12T02:55:17;101316.69;;;8.59;100.00
9249;BME280;4660;41.768;26.198;2023-05-12T02:57:42;101331.09;;;8.69;100.00
9249;BME280;4660;41.768;26.198;2023-05-12T03:00:08;101319.94;;;8.51;100.00
9249;BME280;4660;41.768;26.198;2023-05-12T03:02:37;101308.59;;;8.35;100.00
9249;BME280;4660;41.768;26.198;2023-05-12T03:05:03;101320.13;;;8.48;100.00
9249;BME280;4660;41.768;26.198;2023-05-12T03:07:29;101314.50;;;8.40;100.00
9249;BME280;4660;41.768;26.198;2023-05-12T03:09:54;101321.13;;;8.35;100.00
9249;BME280;4660;41.768;26.198;2023-05-12T03:12:20;101323.69;;;8.73;100.00
9249;BME280;4660;41.768;26.198;2023-05-12T03:14:46;101308.97;;;8.54;100.00
9249;BME280;4660;41.768;26.198;2023-05-12T03:17:12;101315.00;;;8.45;100.00
9249;BME280;4660;41.768;26.198;2023-05-12T03:19:37;101325.28;;;8.51;100.00
9249;BME280;4660;41.768;26.198;2023-05-12T03:22:03;101320.13;;;8.48;100.00
9249;BME280;4660;41.768;26.198;2023-05-12T03:24:31;101342.34;;;8.50;100.00
9249;BME280;4660;41.768;26.198;2023-05-12T03:26:57;101338.91;;;8.48;100.00
9249;BME280;4660;41.768;26.198;2023-05-12T03:29:23;101310.34;;;8.36;100.00
9249;BME280;4660;41.768;26.198;2023-05-12T03:31:49;101325.94;;;8.42;100.00
9249;BME280;4660;41.768;26.198;2023-05-12T03:34:14;101339.19;;;8.57;100.00
9249;BME280;4660;41.768;26.198;2023-05-12T03:36:40;101324.84;;;8.58;100.00
9249;BME280;4660;41.768;26.198;2023-05-12T03:39:06;101330.81;;;8.61;100.00
9249;BME280;4660;41.768;26.198;2023-05-12T03:41:34;101344.00;;;8.64;100.00
9249;BME280;4660;41.768;26.198;2023-05-12T03:43:59;101342.97;;;8.54;100.00
9249;BME280;4660;41.768;26.198;2023-05-12T03:46:25;101356.69;;;8.86;100.00
9249;BME280;4660;41.768;26.198;2023-05-12T03:48:50;101343.78;;;8.91;100.00
9249;BME280;4660;41.768;26.198;2023-05-12T03:51:16;101356.69;;;8.86;100.00
9249;BME280;4660;41.768;26.198;2023-05-12T03:53:41;101358.03;;;8.92;100.00
9249;BME280;4660;41.768;26.198;2023-05-12T03:56:10;101341.47;;;8.87;100.00
9249;BME280;4660;41.768;26.198;2023-05-12T03:58:35;101351.09;;;9.24;100.00
9249;BME280;4660;41.768;26.198;2023-05-12T04:01:00;101351.25;;;9.34;100.00
9249;BME280;4660;41.768;26.198;2023-05-12T04:03:29;101351.50;;;9.31;100.00
9249;BME280;4660;41.768;26.198;2023-05-12T04:05:59;101357.38;;;9.47;100.00
9249;BME280;4660;41.768;26.198;2023-05-12T04:08:26;101353.72;;;9.37;100.00
9249;BME280;4660;41.768;26.198;2023-05-12T04:10:56;101345.28;;;9.42;100.00
9249;BME280;4660;41.768;26.198;2023-05-12T04:13:26;101330.34;;;9.26;100.00
9249;BME280;4660;41.768;26.198;2023-05-12T04:15:56;101353.19;;;9.32;100.00
9249;BME280;4660;41.768;26.198;2023-05-12T04:18:27;101361.78;;;9.37;100.00
9249;BME280;4660;41.768;26.198;2023-05-12T04:20:53;101368.44;;;9.67;100.00
9249;BME280;4660;41.768;26.198;2023-05-12T04:23:19;101354.28;;;9.64;100.00
9249;BME280;4660;41.768;26.198;2023-05-12T04:25:44;101362.59;;;9.73;100.00
9249;BME280;4660;41.768;26.198;2023-05-12T04:28:10;101348.53;;;9.80;100.00
9249;BME280;4660;41.768;26.198;2023-05-12T04:30:38;101371.59;;;9.60;100.00
9249;BME280;4660;41.768;26.198;2023-05-12T04:33:04;101372.09;;;9.77;100.00
9249;BME280;4660;41.768;26.198;2023-05-12T04:35:30;101372.72;;;9.80;100.00
9249;BME280;4660;41.768;26.198;2023-05-12T04:37:55;101367.19;;;9.71;100.00
9249;BME280;4660;41.768;26.198;2023-05-12T04:40:21;101349.75;;;9.76;100.00
9249;BME280;4660;41.768;26.198;2023-05-12T04:42:46;101348.53;;;9.80;100.00
9249;BME280;4660;41.768;26.198;2023-05-12T04:45:12;101360.03;;;9.93;100.00
9249;BME280;4660;41.768;26.198;2023-05-12T04:47:37;101360.50;;;10.21;100.00
9249;BME280;4660;41.768;26.198;2023-05-12T04:50:03;101357.09;;;10.19;100.00
9249;BME280;4660;41.768;26.198;2023-05-12T04:52:30;101350.00;;;10.07;100.00
9249;BME280;4660;41.768;26.198;2023-05-12T04:54:55;101319.81;;;9.92;100.00
9249;BME280;4660;41.768;26.198;2023-05-12T04:57:21;101365.19;;;10.30;100.00
9249;BME280;4660;41.768;26.198;2023-05-12T04:59:47;101359.28;;;10.47;100.00
9249;BME280;4660;41.768;26.198;2023-05-12T05:02:13;101354.53;;;10.40;100.00
9249;BME280;4660;41.768;26.198;2023-05-12T05:04:38;101366.59;;;10.68;100.00
9249;BME280;4660;41.768;26.198;2023-05-12T05:07:04;101364.19;;;10.54;100.00
9249;BME280;4660;41.768;26.198;2023-05-12T05:09:30;101347.22;;;10.31;100.00
9249;BME280;4660;41.768;26.198;2023-05-12T05:11:55;101343.78;;;10.51;100.00
9249;BME280;4660;41.768;26.198;2023-05-12T05:14:21;101372.53;;;10.83;100.00
9249;BME280;4660;41.768;26.198;2023-05-12T05:16:47;101349.53;;;10.90;100.00
9249;BME280;4660;41.768;26.198;2023-05-12T05:19:13;101366.19;;;11.16;100.00
9249;BME280;4660;41.768;26.198;2023-05-12T05:21:39;101351.75;;;11.38;100.00
9249;BME280;4660;41.768;26.198;2023-05-12T05:24:05;101369.81;;;11.68;100.00
9249;BME280;4660;41.768;26.198;2023-05-12T05:26:31;101377.72;;;11.60;100.00
9249;BME280;4660;41.768;26.198;2023-05-12T05:28:57;101366.31;;;11.35;100.00
9249;BME280;4660;41.768;26.198;2023-05-12T05:31:23;101381.13;;;11.41;100.00
9249;BME280;4660;41.768;26.198;2023-05-12T05:33:48;101359.50;;;11.31;100.00
9249;BME280;4660;41.768;26.198;2023-05-12T05:36:14;101381.66;;;11.55;100.00
9249;BME280;4660;41.768;26.198;2023-05-12T05:38:41;101357.47;;;11.65;100.00
9249;BME280;4660;41.768;26.198;2023-05-12T05:41:07;101357.53;;;11.75;100.00
9249;BME280;4660;41.768;26.198;2023-05-12T05:43:32;101376.38;;;11.86;100.00
9249;BME280;4660;41.768;26.198;2023-05-12T05:45:58;101361.94;;;11.97;100.00
9249;BME280;4660;41.768;26.198;2023-05-12T05:48:24;101336.81;;;11.75;100.00
9249;BME280;4660;41.768;26.198;2023-05-12T05:50:50;101362.94;;;12.05;100.00
9249;BME280;4660;41.768;26.198;2023-05-12T05:53:17;101360.69;;;12.01;100.00
9249;BME280;4660;41.768;26.198;2023-05-12T05:55:43;101349.31;;;12.07;100.00
9249;BME280;4660;41.768;26.198;2023-05-12T05:58:09;101363.22;;;12.33;100.00
9249;BME280;4660;41.768;26.198;2023-05-12T06:00:34;101357.66;;;12.34;100.00
9249;BME280;4660;41.768;26.198;2023-05-12T06:03:00;101365.66;;;12.46;100.00
9249;BME280;4660;41.768;26.198;2023-05-12T06:05:25;101363.84;;;12.56;100.00
9249;BME280;4660;41.768;26.198;2023-05-12T06:07:51;101356.19;;;12.61;100.00
9249;BME280;4660;41.768;26.198;2023-05-12T06:10:17;101354.50;;;12.60;100.00
9249;BME280;4660;41.768;26.198;2023-05-12T06:12:42;101363.13;;;12.54;100.00
9249;BME280;4660;41.768;26.198;2023-05-12T06:15:08;101349.25;;;12.68;100.00
9249;BME280;4660;41.768;26.198;2023-05-12T06:17:34;101357.09;;;12.90;100.00
9249;BME280;4660;41.768;26.198;2023-05-12T06:20:00;101365.94;;;13.21;100.00
9249;BME280;4660;41.768;26.198;2023-05-12T06:22:25;101352.28;;;13.33;100.00
9249;BME280;4660;41.768;26.198;2023-05-12T06:24:51;101377.03;;;13.47;100.00
9249;BME280;4660;41.768;26.198;2023-05-12T06:27:16;101371.59;;;13.67;100.00
9249;BME280;4660;41.768;26.198;2023-05-12T06:29:42;101365.50;;;13.65;100.00
9249;BME280;4660;41.768;26.198;2023-05-12T06:32:07;101366.44;;;13.83;100.00
9249;BME280;4660;41.768;26.198;2023-05-12T06:34:33;101370.88;;;14.12;100.00
9249;BME280;4660;41.768;26.198;2023-05-12T06:36:58;101356.88;;;14.26;100.00
9249;BME280;4660;41.768;26.198;2023-05-12T06:39:24;101352.13;;;14.38;100.00
9249;BME280;4660;41.768;26.198;2023-05-12T06:41:49;101373.84;;;14.55;100.00
9249;BME280;4660;41.768;26.198;2023-05-12T06:44:15;101373.84;;;14.55;100.00
9249;BME280;4660;41.768;26.198;2023-05-12T06:46:40;101373.75;;;14.75;100.00
9249;BME280;4660;41.768;26.198;2023-05-12T06:49:06;101360.63;;;14.70;100.00
9249;BME280;4660;41.768;26.198;2023-05-12T06:51:32;101373.22;;;14.89;100.00
9249;BME280;4660;41.768;26.198;2023-05-12T06:53:59;101333.56;;;14.70;100.00
9249;BME280;4660;41.768;26.198;2023-05-12T06:56:24;101374.72;;;15.01;100.00
9249;BME280;4660;41.768;26.198;2023-05-12T06:58:53;101378.19;;;15.11;100.00
9249;BME280;4660;41.768;26.198;2023-05-12T07:01:21;101363.31;;;15.16;100.00
9249;BME280;4660;41.768;26.198;2023-05-12T07:03:46;101380.56;;;15.32;100.00
9249;BME280;4660;41.768;26.198;2023-05-12T07:06:12;101376.78;;;15.43;100.00
9249;BME280;4660;41.768;26.198;2023-05-12T07:08:38;101364.25;;;15.24;100.00
9249;BME280;4660;41.768;26.198;2023-05-12T07:11:03;101374.94;;;15.44;100.00
9249;BME280;4660;41.768;26.198;2023-05-12T07:13:29;101373.75;;;15.46;100.00
9249;BME280;4660;41.768;26.198;2023-05-12T07:15:54;101374.91;;;15.61;100.00
9249;BME280;4660;41.768;26.198;2023-05-12T07:18:20;101370.47;;;15.60;100.00
9249;BME280;4660;41.768;26.198;2023-05-12T07:20:45;101367.22;;;15.75;100.00
9249;BME280;4660;41.768;26.198;2023-05-12T07:23:12;101384.03;;;16.04;100.00
9249;BME280;4660;41.768;26.198;2023-05-12T07:25:38;101368.47;;;16.14;100.00
9249;BME280;4660;41.768;26.198;2023-05-12T07:28:04;101350.78;;;16.36;100.00
9249;BME280;4660;41.768;26.198;2023-05-12T07:30:30;101354.28;;;16.29;100.00
9249;BME280;4660;41.768;26.198;2023-05-12T07:32:55;101375.97;;;16.20;100.00
9249;BME280;4660;41.768;26.198;2023-05-12T07:35:23;101373.28;;;16.29;100.00
9249;BME280;4660;41.768;26.198;2023-05-12T07:37:48;101367.41;;;16.41;100.00
9249;BME280;4660;41.768;26.198;2023-05-12T07:40:14;101379.53;;;16.21;100.00
9249;BME280;4660;41.768;26.198;2023-05-12T07:42:40;101360.31;;;16.14;100.00
9249;BME280;4660;41.768;26.198;2023-05-12T07:45:06;101364.34;;;16.02;100.00
9249;BME280;4660;41.768;26.198;2023-05-12T07:47:31;101351.13;;;16.07;100.00
9249;BME280;4660;41.768;26.198;2023-05-12T07:49:57;101357.72;;;16.39;100.00
9249;BME280;4660;41.768;26.198;2023-05-12T07:52:23;101365.94;;;16.63;100.00
9249;BME280;4660;41.768;26.198;2023-05-12T07:54:48;101341.59;;;16.80;100.00
9249;BME280;4660;41.768;26.198;2023-05-12T07:57:14;101366.78;;;17.14;100.00
9249;BME280;4660;41.768;26.198;2023-05-12T07:59:39;101368.16;;;17.34;100.00
9249;BME280;4660;41.768;26.198;2023-05-12T08:02:05;101372.25;;;17.47;100.00
9249;BME280;4660;41.768;26.198;2023-05-12T08:04:31;101361.00;;;17.42;100.00
9249;BME280;4660;41.768;26.198;2023-05-12T08:06:57;101350.97;;;17.34;100.00
9249;BME280;4660;41.768;26.198;2023-05-12T08:09:23;101357.25;;;17.43;100.00
9249;BME280;4660;41.768;26.198;2023-05-12T08:11:48;101354.34;;;18.01;100.00
9249;BME280;4660;41.768;26.198;2023-05-12T08:14:14;101359.44;;;18.04;100.00
9249;BME280;4660;41.768;26.198;2023-05-12T08:16:40;101358.38;;;18.13;100.00
9249;BME280;4660;41.768;26.198;2023-05-12T08:19:07;101354.72;;;17.49;100.00
9249;BME280;4660;41.768;26.198;2023-05-12T08:21:32;101366.81;;;17.39;100.00
9249;BME280;4660;41.768;26.198;2023-05-12T08:23:58;101366.81;;;17.71;100.00
9249;BME280;4660;41.768;26.198;2023-05-12T08:26:23;101355.34;;;18.08;100.00
9249;BME280;4660;41.768;26.198;2023-05-12T08:28:49;101361.56;;;18.25;100.00
9249;BME280;4660;41.768;26.198;2023-05-12T08:31:14;101352.09;;;18.05;100.00
9249;BME280;4660;41.768;26.198;2023-05-12T08:33:40;101350.63;;;17.94;100.00
9249;BME280;4660;41.768;26.198;2023-05-12T08:36:06;101376.44;;;18.06;100.00
9249;BME280;4660;41.768;26.198;2023-05-12T08:38:32;101362.16;;;18.04;100.00
9249;BME280;4660;41.768;26.198;2023-05-12T08:41:18;101364.25;;;17.94;100.00
9249;BME280;4660;41.768;26.198;2023-05-12T08:43:49;101361.50;;;18.02;100.00
9249;BME280;4660;41.768;26.198;2023-05-12T08:46:15;101365.09;;;17.95;100.00
9249;BME280;4660;41.768;26.198;2023-05-12T08:48:41;101354.53;;;17.83;100.00
9249;BME280;4660;41.768;26.198;2023-05-12T08:51:08;101350.41;;;18.04;100.00
9249;BME280;4660;41.768;26.198;2023-05-12T08:53:36;101354.44;;;18.24;100.00
9249;BME280;4660;41.768;26.198;2023-05-12T08:56:05;101368.09;;;18.16;100.00
9249;BME280;4660;41.768;26.198;2023-05-12T08:58:31;101363.34;;;18.10;100.00
9249;BME280;4660;41.768;26.198;2023-05-12T09:00:59;101364.00;;;18.12;99.19
9249;BME280;4660;41.768;26.198;2023-05-12T09:03:26;101330.03;;;17.92;100.00
9249;BME280;4660;41.768;26.198;2023-05-12T09:05:54;101352.34;;;17.87;100.00
9249;BME280;4660;41.768;26.198;2023-05-12T09:08:23;101351.47;;;17.95;100.00
9249;BME280;4660;41.768;26.198;2023-05-12T09:10:50;101364.66;;;18.22;100.00
9249;BME280;4660;41.768;26.198;2023-05-12T09:15:52;101360.56;;;18.57;98.11
9249;BME280;4660;41.768;26.198;2023-05-12T09:18:21;101356.44;;;18.38;100.00
9249;BME280;4660;41.768;26.198;2023-05-12T09:20:46;101358.44;;;18.45;99.85
9249;BME280;4660;41.768;26.198;2023-05-12T09:23:17;101355.13;;;18.57;99.64
9249;BME280;4660;41.768;26.198;2023-05-12T09:25:42;101356.88;;;18.89;99.29
9249;BME280;4660;41.768;26.198;2023-05-12T09:28:08;101352.19;;;18.75;98.65
9249;BME280;4660;41.768;26.198;2023-05-12T09:30:34;101343.38;;;18.96;93.77
9249;BME280;4660;41.768;26.198;2023-05-12T09:33:10;101361.66;;;19.33;90.83
9249;BME280;4660;41.768;26.198;2023-05-12T09:35:40;101363.97;;;18.98;91.44
9249;BME280;4660;41.768;26.198;2023-05-12T09:38:07;101324.72;;;18.46;93.18
9249;BME280;4660;41.768;26.198;2023-05-12T09:40:33;101347.88;;;18.41;94.07
9249;BME280;4660;41.768;26.198;2023-05-12T09:42:59;101355.59;;;18.38;92.77
9249;BME280;4660;41.768;26.198;2023-05-12T09:45:32;101352.53;;;18.64;92.02
9249;BME280;4660;41.768;26.198;2023-05-12T09:48:06;101359.03;;;18.63;91.53
9249;BME280;4660;41.768;26.198;2023-05-12T09:50:32;101356.06;;;18.41;93.30
9249;BME280;4660;41.768;26.198;2023-05-12T09:52:58;101361.84;;;18.47;92.83
9249;BME280;4660;41.768;26.198;2023-05-12T09:55:23;101343.59;;;18.47;92.38
9249;BME280;4660;41.768;26.198;2023-05-12T09:57:49;101338.63;;;18.59;91.69
9249;BME280;4660;41.768;26.198;2023-05-12T10:00:15;101353.53;;;18.79;89.45
9249;BME280;4660;41.768;26.198;2023-05-12T10:02:47;101345.44;;;18.94;88.38
9249;BME280;4660;41.768;26.198;2023-05-12T10:05:14;101337.19;;;19.02;86.47
9249;BME280;4660;41.768;26.198;2023-05-12T10:07:44;101339.84;;;18.87;85.83
9249;BME280;4660;41.768;26.198;2023-05-12T10:10:14;101359.97;;;18.86;87.62
9249;BME280;4660;41.768;26.198;2023-05-12T10:12:42;101351.53;;;18.65;89.37
9249;BME280;4660;41.768;26.198;2023-05-12T10:15:09;101329.41;;;18.68;89.09
9249;BME280;4660;41.768;26.198;2023-05-12T10:17:35;101343.94;;;18.83;87.98
9249;BME280;4660;41.768;26.198;2023-05-12T10:20:02;101335.72;;;18.91;87.70
9249;BME280;4660;41.768;26.198;2023-05-12T10:22:32;101329.78;;;19.11;82.83
9249;BME280;4660;41.768;26.198;2023-05-12T10:25:00;101317.38;;;19.08;83.09
9249;BME280;4660;41.768;26.198;2023-05-12T10:27:28;101312.19;;;19.36;80.37
9249;BME280;4660;41.768;26.198;2023-05-12T10:29:54;101342.00;;;19.61;77.59
9249;BME280;4660;41.768;26.198;2023-05-12T10:32:20;101345.25;;;19.79;77.10
9249;BME280;4660;41.768;26.198;2023-05-12T10:34:46;101329.63;;;19.73;76.89
9249;BME280;4660;41.768;26.198;2023-05-12T10:37:11;101343.34;;;19.42;76.47
9249;BME280;4660;41.768;26.198;2023-05-12T10:39:46;101329.53;;;19.43;76.57
9249;BME280;4660;41.768;26.198;2023-05-12T10:42:16;101336.56;;;19.61;75.40
9249;BME280;4660;41.768;26.198;2023-05-12T10:44:55;101325.66;;;19.90;74.48
9249;BME280;4660;41.768;26.198;2023-05-12T10:47:36;101330.84;;;20.44;71.11
9249;BME280;4660;41.768;26.198;2023-05-12T10:50:02;101321.88;;;20.21;66.39
9249;BME280;4660;41.768;26.198;2023-05-12T10:52:27;101337.72;;;20.11;67.26
9249;BME280;4660;41.768;26.198;2023-05-12T10:54:59;101319.44;;;19.67;67.46
9249;BME280;4660;41.768;26.198;2023-05-12T10:57:25;101300.94;;;19.54;68.19
9249;BME280;4660;41.768;26.198;2023-05-12T10:59:55;101325.47;;;20.06;66.06
9249;BME280;4660;41.768;26.198;2023-05-12T11:02:23;101309.06;;;20.06;65.13
9249;BME280;4660;41.768;26.198;2023-05-12T11:04:58;101321.41;;;20.47;63.40
9249;BME280;4660;41.768;26.198;2023-05-12T11:07:28;101309.56;;;20.76;62.24
9249;BME280;4660;41.768;26.198;2023-05-12T11:09:56;101310.97;;;20.50;64.40
9249;BME280;4660;41.768;26.198;2023-05-12T11:12:23;101305.94;;;20.54;63.96
9249;BME280;4660;41.768;26.198;2023-05-12T11:14:51;101296.41;;;20.65;61.92
9249;BME280;4660;41.768;26.198;2023-05-12T11:17:17;101313.78;;;20.78;60.29
9249;BME280;4660;41.768;26.198;2023-05-12T11:19:47;101313.84;;;20.85;58.83
9249;BME280;4660;41.768;26.198;2023-05-12T11:22:17;101319.53;;;21.05;59.83
9249;BME280;4660;41.768;26.198;2023-05-12T11:24:44;101306.69;;;20.84;59.09
9249;BME280;4660;41.768;26.198;2023-05-12T11:27:15;101323.63;;;20.73;59.88
9249;BME280;4660;41.768;26.198;2023-05-12T11:29:41;101306.06;;;20.82;60.18
9249;BME280;4660;41.768;26.198;2023-05-12T11:32:08;101308.94;;;20.95;59.75
9249;BME280;4660;41.768;26.198;2023-05-12T11:34:35;101300.84;;;21.08;59.71
9249;BME280;4660;41.768;26.198;2023-05-12T11:37:02;101309.00;;;21.02;58.55
9249;BME280;4660;41.768;26.198;2023-05-12T11:39:29;101304.34;;;20.59;58.08
9249;BME280;4660;41.768;26.198;2023-05-12T11:42:02;101302.56;;;20.52;59.13
9249;BME280;4660;41.768;26.198;2023-05-12T11:44:29;101300.31;;;20.77;58.36
9249;BME280;4660;41.768;26.198;2023-05-12T11:49:26;101306.97;;;21.10;58.60
9249;BME280;4660;41.768;26.198;2023-05-12T11:51:55;101266.22;;;20.94;58.58
9249;BME280;4660;41.768;26.198;2023-05-12T11:54:22;101289.91;;;20.87;59.43
9249;BME280;4660;41.768;26.198;2023-05-12T11:56:49;101282.97;;;20.70;59.23
9249;BME280;4660;41.768;26.198;2023-05-12T11:59:33;101295.72;;;20.63;57.89
9249;BME280;4660;41.768;26.198;2023-05-12T12:02:00;101283.81;;;20.70;56.50
9249;BME280;4660;41.768;26.198;2023-05-12T12:04:37;101293.28;;;21.10;55.39
9249;BME280;4660;41.768;26.198;2023-05-12T12:07:04;101277.94;;;21.31;53.63
9249;BME280;4660;41.768;26.198;2023-05-12T12:12:01;101271.66;;;21.37;54.31
9249;BME280;4660;41.768;26.198;2023-05-12T12:14:27;101287.19;;;21.08;55.28
9249;BME280;4660;41.768;26.198;2023-05-12T12:16:53;101272.38;;;20.81;56.87
9249;BME280;4660;41.768;26.198;2023-05-12T12:19:18;101290.69;;;20.81;57.88
9249;BME280;4660;41.768;26.198;2023-05-12T12:21:44;101286.44;;;20.78;56.88
9249;BME280;4660;41.768;26.198;2023-05-12T12:24:09;101282.56;;;20.87;56.17
9249;BME280;4660;41.768;26.198;2023-05-12T12:26:35;101279.53;;;21.04;54.77
9249;BME280;4660;41.768;26.198;2023-05-12T12:29:00;101295.47;;;21.43;52.97
9249;BME280;4660;41.768;26.198;2023-05-12T12:31:26;101285.16;;;21.17;54.30
9249;BME280;4660;41.768;26.198;2023-05-12T12:33:52;101275.31;;;21.01;56.26
9249;BME280;4660;41.768;26.198;2023-05-12T12:36:17;101285.88;;;20.83;57.48
9249;BME280;4660;41.768;26.198;2023-05-12T12:38:42;101288.53;;;21.19;53.75
9249;BME280;4660;41.768;26.198;2023-05-12T12:41:08;101285.53;;;21.35;53.29
9249;BME280;4660;41.768;26.198;2023-05-12T12:43:34;101276.16;;;21.02;53.29
9249;BME280;4660;41.768;26.198;2023-05-12T12:46:00;101275.13;;;20.81;54.99
9249;BME280;4660;41.768;26.198;2023-05-12T12:48:25;101265.94;;;20.89;55.95
9249;BME280;4660;41.768;26.198;2023-05-12T12:50:52;101272.31;;;20.96;54.62
9249;BME280;4660;41.768;26.198;2023-05-12T12:53:18;101276.16;;;21.02;55.40
9249;BME280;4660;41.768;26.198;2023-05-12T12:55:44;101270.88;;;21.50;52.42
9249;BME280;4660;41.768;26.198;2023-05-12T12:58:09;101283.22;;;21.95;50.48
9249;BME280;4660;41.768;26.198;2023-05-12T13:00:35;101269.31;;;21.96;50.34
9249;BME280;4660;41.768;26.198;2023-05-12T13:03:01;101276.97;;;21.73;51.34